Time;durP1;ratioP1;P1;durP2;ratioP2;P2;SDS_P1;SDS_P2;PMS_P1;PMS_P2;Temp;Humidity;BMP_temperature;BMP_pressure;BME280_temperature;BME280_humidity;BME280_pressure;Samples;Min_cycle;Max_cycle;Signal;HPM_P1;HPM_P2
2022/04/23 00:01:35;;;;;;;16.10;13.93;;;;;;;8.72;91.13;99230.73;1393481;87;21310;-84
2022/04/23 00:04:01;;;;;;;17.00;12.83;;;;;;;8.72;91.49;99228.92;1392546;88;22197;-84
2022/04/23 00:06:27;;;;;;;16.57;13.87;;;;;;;8.71;91.61;99230.39;1397252;86;21396;-84
2022/04/23 00:08:53;;;;;;;17.03;13.70;;;;;;;8.71;91.89;99223.79;1398857;88;21339;-84
2022/04/23 00:11:19;;;;;;;20.83;14.30;;;;;;;8.69;92.28;99227.93;1399092;88;21295;-83
2022/04/23 00:13:45;;;;;;;19.03;15.63;;;;;;;8.67;91.68;99228.58;1398026;88;21324;-83
2022/04/23 00:16:14;;;;;;;16.60;13.87;;;;;;;8.66;92.39;99222.13;1396884;89;21258;-84
2022/04/23 00:18:40;;;;;;;16.97;12.90;;;;;;;8.66;92.02;99222.13;1398817;88;21331;-84
2022/04/23 00:21:06;;;;;;;15.73;12.97;;;;;;;8.67;91.61;99230.40;1399202;88;22249;-89
2022/04/23 00:23:33;;;;;;;16.47;12.43;;;;;;;8.71;91.38;99233.84;1419972;89;21389;-93
2022/04/23 00:26:01;;;;;;;19.87;13.63;;;;;;;8.78;91.35;99241.95;1405393;88;21221;-92
2022/04/23 00:28:27;;;;;;;16.70;13.10;;;;;;;8.81;91.28;99228.42;1421111;86;21257;-93
2022/04/23 00:30:53;;;;;;;16.13;13.03;;;;;;;8.82;91.45;99236.66;1406595;88;22244;-91
2022/04/23 00:33:20;;;;;;;16.47;14.27;;;;;;;8.80;91.84;99236.84;1421507;86;21381;-91
2022/04/23 00:35:50;;;;;;;17.93;15.07;;;;;;;8.76;91.83;99228.08;1421435;87;22151;-93
2022/04/23 00:38:17;;;;;;;18.17;14.38;;;;;;;8.74;91.32;99233.52;1399209;88;21228;-94
2022/04/23 00:40:44;;;;;;;19.20;13.97;;;;;;;8.75;91.47;99225.95;1396647;87;21340;-93
2022/04/23 00:43:27;;;;;;;16.83;14.20;;;;;;;8.72;91.97;99218.86;1379114;90;21258;-90
2022/04/23 00:45:55;;;;;;;16.13;13.93;;;;;;;8.67;91.60;99214.57;1420315;86;21176;-92
2022/04/23 00:48:21;;;;;;;14.27;12.43;;;;;;;8.67;91.90;99216.71;1379524;90;21227;-92
2022/04/23 00:50:50;;;;;;;16.53;13.83;;;;;;;8.69;91.61;99215.20;1403303;88;21265;-93
2022/04/23 00:53:18;;;;;;;20.90;15.10;;;;;;;8.71;91.71;99219.84;1395541;88;21325;-92
2022/04/23 00:55:46;;;;;;;18.23;14.67;;;;;;;8.73;91.58;99224.45;1395509;88;21294;-91
2022/04/23 00:58:16;;;;;;;20.90;15.80;;;;;;;8.70;91.77;99219.52;1393274;88;21265;-90
2022/04/23 01:00:44;;;;;;;21.00;13.50;;;;;;;8.70;91.50;99220.84;1390155;88;21347;-91
2022/04/23 01:03:14;;;;;;;21.57;16.03;;;;;;;8.69;91.76;99219.16;1390489;89;21333;-91
2022/04/23 01:05:46;;;;;;;19.17;14.63;;;;;;;8.70;91.93;99210.28;1373892;89;21437;-91
2022/04/23 01:08:18;;;;;;;18.63;13.63;;;;;;;8.69;92.13;99204.66;1362664;89;22273;-92
2022/04/23 01:10:45;;;;;;;18.43;13.20;;;;;;;8.67;93.41;99207.98;1392277;88;21244;-92
2022/04/23 01:13:16;;;;;;;19.70;13.53;;;;;;;8.70;92.75;99208.97;1392087;88;21554;-90
2022/04/23 01:16:04;;;;;;;19.40;14.47;;;;;;;8.74;93.21;99207.63;1379179;90;21252;-90
2022/04/23 01:18:30;;;;;;;19.70;14.13;;;;;;;8.77;92.75;99215.21;1392361;88;21244;-91
2022/04/23 01:20:59;;;;;;;16.97;11.93;;;;;;;8.78;92.95;99210.28;1379166;90;21335;-92
2022/04/23 01:23:26;;;;;;;20.60;14.00;;;;;;;8.77;94.55;99211.25;1391759;88;21281;-92
2022/04/23 01:38:30;;;;;;;15.40;10.80;;;;;;;8.75;97.75;99194.79;1407756;87;21133;31
2022/04/23 01:40:59;;;;;;;14.23;10.00;;;;;;;8.78;97.19;99195.27;1377159;87;21434;31
2022/04/23 01:43:29;;;;;;;13.27;11.10;;;;;;;8.75;98.49;99201.39;1374395;86;21419;31
2022/04/23 01:45:55;;;;;;;16.80;11.33;;;;;;;8.79;96.76;99198.23;1371014;91;22202;-94
2022/04/23 01:48:21;;;;;;;12.00;8.33;;;;;;;8.83;96.85;99194.76;1336445;94;21383;-93
2022/04/23 01:50:48;;;;;;;15.27;9.90;;;;;;;8.83;97.26;99199.22;1350630;91;21272;-93
2022/04/23 01:53:14;;;;;;;10.10;8.93;;;;;;;8.81;97.96;99193.63;1363850;91;21339;-91
2022/04/23 01:55:40;;;;;;;18.23;10.57;;;;;;;8.78;98.04;99197.09;1350466;92;22234;-93
2022/04/23 01:58:06;;;;;;;13.43;10.00;;;;;;;8.81;97.75;99195.44;1365042;91;21295;-91
2022/04/23 02:00:33;;;;;;;11.93;9.03;;;;;;;8.79;97.95;99191.64;1363142;91;21442;-91
2022/04/23 02:02:59;;;;;;;12.40;8.47;;;;;;;8.80;97.71;99188.50;1363061;90;21397;-92
2022/04/23 02:05:25;;;;;;;10.93;8.53;;;;;;;8.81;97.73;99188.34;1364071;91;21293;-92
2022/04/23 02:07:51;;;;;;;10.73;8.27;;;;;;;8.81;97.57;99187.53;1364050;90;21293;-91
2022/04/23 02:10:18;;;;;;;10.27;7.77;;;;;;;8.76;98.05;99187.20;1349065;92;21354;-91
2022/04/23 02:12:49;;;;;;;10.63;8.17;;;;;;;8.73;98.27;99192.30;1358971;90;21273;-91
2022/04/23 02:15:15;;;;;;;10.83;7.47;;;;;;;8.75;98.13;99192.16;1359510;90;21369;-92
2022/04/23 02:17:44;;;;;;;12.53;8.40;;;;;;;8.69;98.69;99195.42;1344148;92;21422;-91
2022/04/23 02:20:16;;;;;;;10.63;8.13;;;;;;;8.68;98.95;99199.06;1357888;91;21295;-90
2022/04/23 02:22:44;;;;;;;9.83;8.27;;;;;;;8.70;98.61;99194.45;1316822;95;22204;-91
2022/04/23 02:25:11;;;;;;;11.60;8.17;;;;;;;8.70;98.39;99198.41;1352563;89;21287;-91
2022/04/23 02:27:46;;;;;;;10.77;8.07;;;;;;;8.75;97.67;99194.29;1376608;89;21442;-90
2022/04/23 02:30:15;;;;;;;10.03;8.07;;;;;;;8.70;98.64;99205.01;1375004;91;21345;-91
2022/04/23 02:32:42;;;;;;;10.63;7.33;;;;;;;8.75;97.37;99198.75;1368499;89;21384;-91
2022/04/23 02:35:10;;;;;;;10.97;8.77;;;;;;;8.73;97.90;99200.72;1365924;91;21249;-92
2022/04/23 02:37:37;;;;;;;9.73;7.67;;;;;;;8.75;97.56;99205.34;1353393;92;21406;-90
2022/04/23 02:40:07;;;;;;;10.13;8.73;;;;;;;8.76;97.09;99206.98;1380158;89;22240;-90
2022/04/23 02:42:34;;;;;;;10.53;8.33;;;;;;;8.80;97.52;99205.17;1372591;89;21278;-88
2022/04/23 02:45:03;;;;;;;10.87;7.93;;;;;;;8.83;96.79;99211.09;1353199;91;21453;-90
2022/04/23 02:47:32;;;;;;;10.10;7.87;;;;;;;8.83;96.82;99205.31;1348236;92;21339;-90
2022/04/23 02:49:58;;;;;;;9.63;7.60;;;;;;;8.82;96.80;99208.95;1335490;93;22423;-90
2022/04/23 02:52:24;;;;;;;10.37;7.97;;;;;;;8.80;96.68;99206.97;1340005;92;21301;-90
2022/04/23 02:54:50;;;;;;;9.00;7.30;;;;;;;8.86;95.51;99211.61;1348239;91;21257;-89
2022/04/23 02:57:17;;;;;;;10.57;8.17;;;;;;;8.90;95.49;99214.23;1340422;90;21325;-91
2022/04/23 02:59:43;;;;;;;10.13;8.17;;;;;;;8.91;96.13;99218.50;1339270;92;21350;-91
2022/04/23 03:02:09;;;;;;;9.27;7.80;;;;;;;8.88;95.68;99214.88;1335251;93;21429;-91
2022/04/23 03:04:35;;;;;;;6.77;6.07;;;;;;;8.87;95.65;99215.87;1335555;93;21296;-91
2022/04/23 03:07:03;;;;;;;10.63;7.47;;;;;;;8.83;95.98;99215.86;1351778;91;22390;-91
2022/04/23 03:09:30;;;;;;;10.83;8.00;;;;;;;8.78;96.60;99214.24;1350835;92;21398;-89
2022/04/23 03:11:56;;;;;;;8.60;6.80;;;;;;;8.78;95.88;99221.66;1351031;91;21353;-91
2022/04/23 03:14:23;;;;;;;10.10;8.03;;;;;;;8.80;95.85;99220.16;1350690;91;21279;-90
2022/04/23 03:19:21;;;;;;;10.67;7.40;;;;;;;8.70;96.33;99208.97;1413893;85;22794;-89
2022/04/23 03:21:47;;;;;;;9.73;7.30;;;;;;;8.68;96.50;99220.16;1402668;87;22209;-91
2022/04/23 03:24:13;;;;;;;9.97;7.20;;;;;;;8.67;96.36;99226.44;1403061;88;21383;-90
2022/04/23 03:26:40;;;;;;;9.47;7.67;;;;;;;8.67;96.39;99225.13;1402352;88;21301;-91
2022/04/23 03:29:07;;;;;;;9.73;7.83;;;;;;;8.63;96.58;99231.23;1402354;86;21288;-91
2022/04/23 03:31:33;;;;;;;12.43;7.73;;;;;;;8.65;95.80;99229.73;1402355;88;21368;-90
2022/04/23 03:33:59;;;;;;;10.07;8.20;;;;;;;8.64;95.62;99228.91;1402498;88;21399;-91
2022/04/23 03:36:25;;;;;;;16.63;11.53;;;;;;;8.65;96.29;99231.05;1388290;89;22749;-90
2022/04/23 03:38:51;;;;;;;25.03;16.63;;;;;;;8.65;95.83;99234.50;1401512;88;21258;-91
2022/04/23 03:41:17;;;;;;;17.97;12.90;;;;;;;8.68;95.74;99242.59;1420841;86;22166;-91
2022/04/23 03:43:45;;;;;;;18.17;11.03;;;;;;;8.71;95.40;99242.25;1401087;88;21395;-89
2022/04/23 03:46:12;;;;;;;32.83;22.10;;;;;;;8.68;95.42;99244.72;1400688;88;21310;-88
2022/04/23 03:48:38;;;;;;;16.47;13.80;;;;;;;8.75;95.00;99248.38;1405523;88;21228;-91
2022/04/23 03:51:05;;;;;;;19.40;14.10;;;;;;;8.77;94.95;99249.51;1404991;88;21303;-92
2022/04/23 03:53:31;;;;;;;15.00;11.10;;;;;;;8.76;94.68;99246.55;1421765;86;21324;-92
2022/04/23 03:55:57;;;;;;;40.70;24.47;;;;;;;8.69;94.71;99251.67;1402770;88;21370;-93
2022/04/23 04:00:52;;;;;;;11.97;8.43;;;;;;;8.71;95.46;99255.45;1406255;88;22527;-92
2022/04/23 04:03:18;;;;;;;30.77;18.20;;;;;;;8.66;95.74;99255.10;1403513;88;22189;-90
2022/04/23 04:05:47;;;;;;;50.93;25.43;;;;;;;8.67;95.13;99254.14;1401428;88;21435;-90
2022/04/23 04:08:12;;;;;;;91.10;45.60;;;;;;;8.66;95.09;99250.68;1391145;89;21324;-93
2022/04/23 04:10:40;;;;;;;30.70;17.37;;;;;;;8.69;95.52;99253.45;1419311;85;21538;-89
2022/04/23 04:13:06;;;;;;;17.13;10.80;;;;;;;8.72;95.02;99254.48;1424360;84;21644;-87
2022/04/23 04:15:34;;;;;;;14.90;9.73;;;;;;;8.71;94.75;99255.45;1396823;88;21357;-89
2022/04/23 04:18:01;;;;;;;56.67;30.07;;;;;;;8.67;95.43;99256.77;1381951;89;21299;-91
2022/04/23 04:20:29;;;;;;;57.97;28.83;;;;;;;8.70;94.77;99264.36;1367828;91;22443;-92
2022/04/23 04:22:55;;;;;;;59.77;29.87;;;;;;;8.73;94.98;99264.03;1398926;88;22089;-92
2022/04/23 04:25:22;;;;;;;17.67;12.23;;;;;;;8.73;94.91;99259.57;1384355;89;21395;-93
2022/04/23 04:30:19;;;;;;;13.83;9.70;;;;;;;8.69;95.85;99253.45;1403757;85;21612;31
2022/04/23 04:32:46;;;;;;;26.90;15.40;;;;;;;8.69;95.38;99254.77;1422554;84;21961;31
2022/04/23 04:35:12;;;;;;;17.87;12.20;;;;;;;8.63;95.91;99251.01;1399346;85;21602;-88
2022/04/23 04:37:39;;;;;;;13.67;10.00;;;;;;;8.67;96.02;99252.31;1373367;90;21890;-88
2022/04/23 04:40:07;;;;;;;12.00;9.23;;;;;;;8.68;96.25;99249.18;1375526;89;21397;-91
2022/04/23 04:42:33;;;;;;;12.30;9.27;;;;;;;8.60;96.97;99243.39;1373834;90;21534;-91
2022/04/23 04:45:00;;;;;;;28.57;16.47;;;;;;;8.64;96.24;99239.96;1375279;90;21231;-91
2022/04/23 04:47:26;;;;;;;11.33;7.50;;;;;;;8.63;96.94;99247.52;1375048;88;21283;-90
2022/04/23 04:49:52;;;;;;;20.13;11.33;;;;;;;8.56;97.22;99240.27;1375069;89;21334;-91
2022/04/23 04:52:19;;;;;;;15.37;8.53;;;;;;;8.55;97.23;99245.22;1378024;90;21501;-92
2022/04/23 04:54:45;;;;;;;16.60;10.33;;;;;;;8.60;96.51;99244.72;1393843;88;21287;-91
2022/04/23 04:57:11;;;;;;;14.30;9.00;;;;;;;8.59;97.08;99242.58;1370936;90;21493;-88
2022/04/23 04:59:38;;;;;;;17.87;11.43;;;;;;;8.62;96.45;99248.52;1373043;90;22213;-89
2022/04/23 05:02:05;;;;;;;11.07;7.97;;;;;;;8.62;96.90;99240.61;1376907;89;21267;-90
2022/04/23 05:04:31;;;;;;;13.40;9.93;;;;;;;8.61;97.10;99242.92;1379102;89;21357;-91
2022/04/23 05:06:57;;;;;;;14.67;10.20;;;;;;;8.67;96.06;99248.36;1377989;90;21302;-92
2022/04/23 05:09:26;;;;;;;10.43;8.33;;;;;;;8.68;96.66;99246.55;1388031;88;21202;-92
2022/04/23 05:11:52;;;;;;;9.50;6.97;;;;;;;8.73;96.40;99254.80;1388752;90;22872;-90
2022/04/23 05:14:18;;;;;;;11.47;8.13;;;;;;;8.76;96.19;99246.55;1396401;88;21279;-93
2022/04/23 05:16:44;;;;;;;16.33;10.73;;;;;;;8.77;96.06;99254.28;1352396;90;21347;-91
2022/04/23 05:19:11;;;;;;;9.90;7.77;;;;;;;8.78;95.82;99249.86;1337454;92;21457;-88
2022/04/23 05:21:40;;;;;;;10.97;7.47;;;;;;;8.73;95.98;99260.07;1353952;91;21397;-91
2022/04/23 05:24:06;;;;;;;9.90;7.33;;;;;;;8.67;96.26;99262.05;1366464;90;21512;-89
2022/04/23 05:26:34;;;;;;;10.10;6.40;;;;;;;8.63;96.57;99256.75;1361181;90;21545;-90
2022/04/23 05:29:00;;;;;;;10.37;8.00;;;;;;;8.60;96.90;99260.54;1363157;90;21385;-93
2022/04/23 05:31:26;;;;;;;12.00;7.90;;;;;;;8.64;96.38;99261.06;1341480;92;21251;-91
2022/04/23 05:36:29;;;;;;;12.60;9.20;;;;;;;8.66;96.75;99256.42;1359152;88;21715;31
2022/04/23 05:39:00;;;;;;;11.60;8.40;;;;;;;8.67;97.03;99266.00;1399152;85;24908;31
2022/04/23 05:43:58;;;;;;;12.03;8.60;;;;;;;8.70;96.98;99271.77;1407411;85;21620;-91
2022/04/23 05:46:24;;;;;;;39.93;12.30;;;;;;;8.74;96.67;99288.09;1388654;89;22220;-91
2022/04/23 05:48:50;;;;;;;12.60;8.30;;;;;;;8.74;96.97;99284.95;1374481;90;21354;-91
2022/04/23 05:51:16;;;;;;;13.93;10.27;;;;;;;8.79;96.90;99280.52;1376224;88;21289;-89
2022/04/23 05:53:43;;;;;;;9.63;7.47;;;;;;;8.82;96.57;99292.05;1382167;89;21289;-92
2022/04/23 06:01:10;;;;;;;9.97;7.37;;;;;;;8.91;95.77;99289.75;1390970;86;24621;31
2022/04/23 06:06:25;;;;;;;10.37;8.40;;;;;;;8.93;95.53;99296.20;1393751;88;21818;-93
2022/04/23 06:08:51;;;;;;;9.23;8.03;;;;;;;8.98;95.49;99302.63;1380753;90;21244;-92
2022/04/23 06:11:18;;;;;;;9.77;7.57;;;;;;;9.07;95.10;99304.78;1380668;90;21282;-91
2022/04/23 06:13:44;;;;;;;10.93;8.23;;;;;;;9.16;94.74;99301.64;1380167;90;21340;-93
2022/04/23 06:21:12;;;;;;;11.10;8.07;;;;;;;9.17;94.08;99312.52;1375657;89;21635;-91
2022/04/23 06:23:39;;;;;;;11.23;8.80;;;;;;;9.13;93.97;99313.34;1361477;91;21280;-91
2022/04/23 06:26:06;;;;;;;12.70;9.27;;;;;;;9.16;93.73;99310.38;1376095;90;21398;-92
2022/04/23 06:28:32;;;;;;;11.10;8.57;;;;;;;9.26;93.57;99318.97;1376297;90;21296;-88
2022/04/23 06:30:58;;;;;;;10.43;8.73;;;;;;;9.29;93.03;99321.74;1359661;91;21287;-91
2022/04/23 06:33:24;;;;;;;8.23;7.00;;;;;;;9.28;92.57;99325.88;1365723;89;21428;-89
2022/04/23 06:35:50;;;;;;;7.83;6.10;;;;;;;9.26;91.56;99318.97;1374857;90;21339;-90
2022/04/23 06:38:17;;;;;;;8.80;6.77;;;;;;;9.26;91.93;99320.75;1371259;90;21410;-90
2022/04/23 06:40:43;;;;;;;8.27;6.47;;;;;;;9.34;92.19;99325.22;1352946;91;22271;-89
2022/04/23 06:43:09;;;;;;;11.60;8.00;;;;;;;9.39;90.78;99326.36;1368008;91;21392;-94
2022/04/23 06:48:05;;;;;;;10.67;7.40;;;;;;;9.45;90.94;99337.58;1379804;88;21576;-93
2022/04/23 06:50:33;;;;;;;9.33;6.90;;;;;;;9.51;90.04;99337.91;1376467;89;21319;-92
2022/04/23 06:53:00;;;;;;;9.53;7.37;;;;;;;9.43;88.93;99342.69;1375967;89;21442;-91
2022/04/23 06:55:26;;;;;;;7.97;6.47;;;;;;;9.52;89.56;99346.97;1373581;88;21332;-91
2022/04/23 06:57:52;;;;;;;10.30;7.97;;;;;;;9.43;88.96;99349.30;1362724;90;21303;-91
2022/04/23 07:00:21;;;;;;;12.50;7.63;;;;;;;9.53;89.61;99352.60;1374521;89;21466;-87
2022/04/23 07:02:47;;;;;;;8.83;6.97;;;;;;;9.65;89.47;99353.08;1374441;89;21214;-93
2022/04/23 07:05:13;;;;;;;7.60;6.33;;;;;;;9.68;89.07;99358.02;1350858;91;21332;-91
2022/04/23 07:07:39;;;;;;;10.40;6.33;;;;;;;9.65;88.13;99358.36;1344788;93;21410;-91
2022/04/23 07:10:06;;;;;;;8.77;6.20;;;;;;;9.54;87.86;99365.30;1322332;94;21347;-80
2022/04/23 07:12:33;;;;;;;8.47;6.27;;;;;;;9.60;90.07;99368.60;1364857;90;22315;-81
2022/04/23 07:15:00;;;;;;;8.67;5.93;;;;;;;9.76;89.99;99373.87;1356964;90;21354;-82
2022/04/23 07:17:27;;;;;;;8.90;6.00;;;;;;;9.80;87.23;99371.70;1355695;89;22161;-81
2022/04/23 07:19:56;;;;;;;8.10;6.10;;;;;;;9.83;86.88;99381.44;1366955;91;21296;-82
2022/04/23 07:22:22;;;;;;;9.87;6.67;;;;;;;9.87;87.15;99382.77;1359334;90;21269;-82
2022/04/23 07:24:49;;;;;;;7.57;6.80;;;;;;;9.87;86.58;99380.12;1361429;89;22300;-82
2022/04/23 07:27:15;;;;;;;7.73;6.67;;;;;;;9.88;86.64;99389.69;1364497;90;22350;-87
2022/04/23 07:29:41;;;;;;;7.87;6.97;;;;;;;9.83;86.74;99380.11;1350131;90;21630;-86
2022/04/23 07:32:08;;;;;;;7.83;6.50;;;;;;;9.85;86.46;99390.03;1366921;90;21405;-87
2022/04/23 07:37:34;;;;;;;7.17;5.83;;;;;;;9.84;85.15;99392.36;1363575;89;21184;-86
2022/04/23 07:40:10;;;;;;;5.47;4.47;;;;;;;9.93;85.76;99391.84;1361830;91;21342;-87
2022/04/23 07:42:37;;;;;;;7.50;6.40;;;;;;;9.98;84.92;99392.64;1366727;89;21369;-86
2022/04/23 07:45:04;;;;;;;6.93;6.20;;;;;;;9.97;84.42;99397.11;1368012;89;22240;-87
2022/04/23 07:47:30;;;;;;;8.50;6.63;;;;;;;9.96;84.38;99402.08;1359923;91;22484;-90
2022/04/23 07:49:59;;;;;;;6.00;4.80;;;;;;;10.01;84.38;99404.20;1356538;91;21310;-86
2022/04/23 07:52:24;;;;;;;5.40;4.77;;;;;;;9.94;82.76;99403.55;1353590;91;21414;-86
2022/04/23 07:54:50;;;;;;;8.37;6.53;;;;;;;9.99;82.66;99400.92;1366142;88;21332;-86
2022/04/23 07:57:23;;;;;;;5.30;4.80;;;;;;;10.05;83.58;99406.34;1360508;91;21431;-85
2022/04/23 07:59:51;;;;;;;5.93;5.33;;;;;;;10.12;83.83;99410.45;1369010;89;21434;-85
2022/04/23 08:02:17;;;;;;;7.10;5.47;;;;;;;10.06;83.25;99417.23;1368489;90;22397;-85
2022/04/23 08:04:45;;;;;;;6.93;6.20;;;;;;;10.06;83.26;99409.80;1360952;91;21267;-84
2022/04/23 08:07:11;;;;;;;7.67;6.30;;;;;;;10.13;82.98;99416.91;1354975;91;21217;-84
2022/04/23 08:09:40;;;;;;;9.20;6.10;;;;;;;10.08;82.48;99417.08;1346843;92;22345;-85
2022/04/23 08:12:08;;;;;;;8.60;6.47;;;;;;;10.11;82.71;99422.84;1363128;90;21398;-84
2022/04/23 08:14:35;;;;;;;6.23;4.37;;;;;;;10.04;81.65;99425.00;1354030;91;21294;-85
2022/04/23 08:17:01;;;;;;;6.20;5.20;;;;;;;10.08;81.38;99422.37;1362510;90;21290;-85
2022/04/23 08:19:27;;;;;;;6.03;5.20;;;;;;;10.10;81.85;99427.00;1356165;91;21392;-85
2022/04/23 08:21:54;;;;;;;5.43;4.90;;;;;;;10.14;82.18;99434.91;1359188;90;22101;-84
2022/04/23 08:24:20;;;;;;;8.87;5.47;;;;;;;10.11;80.75;99435.25;1360879;90;21238;-85
2022/04/23 08:26:46;;;;;;;4.70;4.20;;;;;;;10.12;81.68;99440.86;1362384;89;21541;-85
2022/04/23 08:31:56;;;;;;;6.53;5.77;;;;;;;9.96;79.29;99444.37;1361204;90;21237;-84
2022/04/23 08:34:23;;;;;;;7.53;6.73;;;;;;;9.95;80.39;99446.66;1331468;92;21253;-83
2022/04/23 08:36:50;;;;;;;6.87;6.03;;;;;;;9.97;80.63;99447.83;1351609;91;21310;-84
2022/04/23 08:39:16;;;;;;;7.63;6.20;;;;;;;9.97;80.47;99444.69;1360780;90;22168;-84
2022/04/23 08:41:45;;;;;;;9.17;6.37;;;;;;;9.89;80.74;99442.88;1352757;90;21375;-84
2022/04/23 08:44:11;;;;;;;7.40;5.90;;;;;;;10.04;81.79;99444.83;1352830;90;21533;-83
2022/04/23 08:46:39;;;;;;;7.93;6.60;;;;;;;10.17;81.38;99439.36;1353194;89;22322;-84
2022/04/23 08:49:15;;;;;;;7.67;6.50;;;;;;;10.32;82.04;99436.05;1352079;90;21331;-85
2022/04/23 08:51:45;;;;;;;6.40;5.70;;;;;;;10.43;80.33;99442.80;1358957;90;21266;-84
2022/04/23 08:54:14;;;;;;;6.53;5.20;;;;;;;10.56;80.75;99433.83;1359237;91;21421;-84
2022/04/23 08:56:44;;;;;;;7.37;6.20;;;;;;;10.53;79.05;99446.05;1359752;90;21302;-84
2022/04/23 08:59:13;;;;;;;7.40;5.87;;;;;;;10.67;80.10;99443.19;1359132;90;21331;-84
2022/04/23 09:01:40;;;;;;;5.80;5.20;;;;;;;10.82;78.78;99439.66;1362753;89;21395;-85
2022/04/23 09:04:08;;;;;;;8.03;6.17;;;;;;;10.72;76.98;99438.21;1352545;94;21325;-85
2022/04/23 09:06:47;;;;;;;6.17;5.53;;;;;;;10.66;77.70;99438.40;1322105;92;21402;-85
2022/04/23 09:09:19;;;;;;;7.80;5.67;;;;;;;10.50;77.88;99435.81;1316026;94;21203;-86
2022/04/23 09:11:53;;;;;;;7.47;5.90;;;;;;;10.38;78.92;99449.91;1328352;93;22039;-85
2022/04/23 09:14:32;;;;;;;8.47;5.60;;;;;;;10.53;79.25;99440.76;1337634;90;21260;-85
2022/04/23 09:25:32;;;;;;;5.50;4.87;;;;;;;10.94;77.09;99450.68;1333744;91;21457;-85
2022/04/23 09:28:15;;;;;;;7.70;5.93;;;;;;;10.97;76.62;99452.16;1326445;93;21312;-85
2022/04/23 09:30:42;;;;;;;9.87;6.23;;;;;;;10.95;76.47;99457.61;1309407;93;21408;-84
2022/04/23 09:33:09;;;;;;;7.30;6.37;;;;;;;10.88;77.05;99459.31;1310103;94;21460;-85
2022/04/23 09:35:35;;;;;;;9.00;6.43;;;;;;;10.81;76.67;99462.31;1326445;93;21325;-84
2022/04/23 09:38:22;;;;;;;5.93;4.80;;;;;;;10.69;77.33;99457.08;1333184;93;21386;-85
2022/04/23 09:40:53;;;;;;;5.73;5.17;;;;;;;10.65;76.65;99457.93;1325296;94;21415;-85
2022/04/23 09:43:32;;;;;;;6.47;5.40;;;;;;;10.62;77.26;99454.31;1341727;91;21355;-84
2022/04/23 09:46:06;;;;;;;7.47;6.43;;;;;;;10.48;76.48;99459.80;1335083;93;21318;-84
2022/04/23 09:48:33;;;;;;;7.97;6.63;;;;;;;10.52;77.82;99466.39;1337403;93;21539;-84
2022/04/23 09:50:59;;;;;;;8.47;5.77;;;;;;;10.64;77.46;99473.46;1356897;92;21369;-84
2022/04/23 09:53:30;;;;;;;7.20;5.70;;;;;;;10.64;77.65;99481.40;1377128;89;21354;-85
2022/04/23 09:56:05;;;;;;;6.60;5.35;;;;;;;10.68;77.14;99486.70;1367411;89;21472;-84
2022/04/23 09:58:29;;;;;;;6.12;4.67;;;;;;;10.75;77.26;99483.67;1363261;91;21399;-88
2022/04/23 10:00:58;;;;;;;5.10;4.60;;;;;;;10.75;75.56;99482.86;1369112;89;22272;-88
2022/04/23 10:03:32;;;;;;;4.87;4.23;;;;;;;10.64;75.88;99489.34;1360413;91;22206;-88
2022/04/23 10:06:06;;;;;;;8.43;5.37;;;;;;;10.47;75.31;99483.30;1361047;91;22214;-88
2022/04/23 10:08:33;;;;;;;5.05;4.10;;;;;;;10.43;75.84;99486.44;1347419;92;21391;-87
2022/04/23 10:11:08;;;;;;;4.97;4.10;;;;;;;10.45;76.31;99484.46;1361376;89;21318;-89
2022/04/23 10:13:34;;;;;;;5.30;3.87;;;;;;;10.46;76.01;99486.92;1355429;89;22339;-90
2022/04/23 10:16:03;;;;;;;3.97;3.53;;;;;;;10.48;75.34;99498.17;1353339;91;21361;-90
2022/04/23 10:18:31;;;;;;;4.73;4.30;;;;;;;10.39;74.11;99501.33;1379929;89;21354;-89
2022/04/23 10:21:08;;;;;;;5.23;4.30;;;;;;;10.37;74.82;99506.45;1379037;88;21413;-90
2022/04/23 10:24:01;;;;;;;5.83;4.27;;;;;;;10.36;75.56;99504.82;1373954;91;21264;-89
2022/04/23 10:26:44;;;;;;;5.73;4.20;;;;;;;10.45;76.25;99509.59;1367619;89;21356;-89
2022/04/23 10:29:26;;;;;;;5.17;3.50;;;;;;;10.53;76.51;99518.80;1359454;91;22404;-89
2022/04/23 10:31:42;;;;;;;4.50;4.10;;;;;;;10.63;77.23;99530.03;1342666;92;21383;-90
2022/04/23 10:34:31;;;;;;;4.40;4.00;;;;;;;10.47;75.94;99530.92;1334770;92;22740;-90
2022/04/23 10:37:19;;;;;;;6.13;3.93;;;;;;;10.35;75.55;99531.73;1367235;89;21413;-89
2022/04/23 10:39:52;;;;;;;4.07;3.23;;;;;;;10.41;76.61;99530.75;1377696;89;21288;-89
2022/04/23 10:42:24;;;;;;;4.07;3.67;;;;;;;10.41;76.35;99536.85;1363145;89;21315;-89
2022/04/23 10:44:54;;;;;;;5.40;3.57;;;;;;;10.25;76.39;99540.33;1366587;91;21354;-90
2022/04/23 10:47:34;;;;;;;4.53;3.87;;;;;;;10.16;76.66;99540.02;1355247;91;21340;-89
2022/04/23 10:50:22;;;;;;;4.72;4.10;;;;;;;10.39;76.67;99543.66;1369229;89;21273;-90
2022/04/23 10:52:50;;;;;;;5.10;4.10;;;;;;;10.43;76.59;99541.99;1374680;89;21398;-90
2022/04/23 10:55:17;;;;;;;4.97;3.90;;;;;;;10.49;76.22;99550.58;1375745;89;21399;-91
2022/04/23 10:57:54;;;;;;;5.57;4.07;;;;;;;10.48;76.95;99547.11;1368405;90;21388;-90
2022/04/23 11:00:22;;;;;;;4.53;3.73;;;;;;;10.42;76.33;99554.90;1374214;89;21295;-90
2022/04/23 11:02:56;;;;;;;3.30;3.00;;;;;;;10.48;76.54;99551.58;1378339;89;21324;-89
2022/04/23 11:14:09;;;;;;;4.07;3.27;;;;;;;10.45;75.82;99569.94;1356158;90;22249;-89
2022/04/23 11:16:38;;;;;;;4.30;3.22;;;;;;;10.38;76.93;99575.05;1353844;91;21400;-87
2022/04/23 11:19:07;;;;;;;3.00;2.60;;;;;;;10.42;75.18;99571.59;1372432;90;22160;-90
2022/04/23 11:21:33;;;;;;;3.60;2.97;;;;;;;10.52;75.85;99572.72;1377494;89;21295;-89
2022/04/23 11:24:02;;;;;;;5.17;3.60;;;;;;;10.56;75.98;99577.52;1365895;89;21213;-88
2022/04/23 11:26:46;;;;;;;5.97;4.10;;;;;;;10.43;75.49;99577.20;1336673;93;22221;-89
2022/04/23 11:29:14;;;;;;;5.27;3.30;;;;;;;10.46;75.81;99580.83;1324561;93;21371;-86
2022/04/23 11:31:43;;;;;;;4.63;3.07;;;;;;;10.44;75.79;99578.84;1330082;94;21491;-90
2022/04/23 11:34:12;;;;;;;5.90;4.17;;;;;;;10.55;75.49;99577.67;1327357;92;21633;-89
2022/04/23 11:36:38;;;;;;;7.70;3.53;;;;;;;10.64;75.47;99576.66;1330899;93;21592;-91
2022/04/23 11:39:09;;;;;;;4.23;3.60;;;;;;;10.63;75.24;99576.34;1349342;91;21377;-89
2022/04/23 11:41:49;;;;;;;3.50;3.20;;;;;;;10.54;75.79;99581.33;1350448;91;21326;-91
2022/04/23 11:47:10;;;;;;;4.00;3.10;;;;;;;10.72;75.61;99587.23;1349960;91;21356;-89
2022/04/23 11:49:37;;;;;;;4.60;3.40;;;;;;;10.83;74.85;99577.61;1347263;91;21452;-86
2022/04/23 11:52:09;;;;;;;3.63;3.00;;;;;;;11.04;75.98;99573.57;1312719;93;21475;-90
